Time;durP1;ratioP1;P1;durP2;ratioP2;P2;SDS_P1;SDS_P2;PMS_P1;PMS_P2;Temp;Humidity;BMP_temperature;BMP_pressure;BME280_temperature;BME280_humidity;BME280_pressure;Samples;Min_cycle;Max_cycle;Signal;HPM_P1;HPM_P2
2021/06/25 00:00:15;;;;;;;0.40;0.20;;;;;;;18.17;100.00;100472.81;5092374;28;20865;-51
2021/06/25 00:02:42;;;;;;;0.40;0.20;;;;;;;18.03;100.00;100466.38;5091405;28;20445;-51
2021/06/25 00:05:09;;;;;;;0.50;0.50;;;;;;;18.09;100.00;100467.84;5090239;28;20477;-52
2021/06/25 00:07:37;;;;;;;0.73;0.67;;;;;;;18.05;100.00;100471.69;5077282;28;20505;-51
2021/06/25 00:10:06;;;;;;;0.40;0.20;;;;;;;18.00;100.00;100471.94;5095543;28;20473;-52
2021/06/25 00:12:33;;;;;;;0.40;0.20;;;;;;;17.86;100.00;100468.28;5095040;28;20510;-52
2021/06/25 00:15:00;;;;;;;0.40;0.20;;;;;;;17.92;100.00;100473.31;5089507;28;20893;-52
2021/06/25 00:17:26;;;;;;;0.40;0.30;;;;;;;17.81;100.00;100464.97;5094270;28;20423;-53
2021/06/25 00:19:53;;;;;;;0.40;0.30;;;;;;;18.01;100.00;100456.66;5069895;28;20871;-51
2021/06/25 00:22:20;;;;;;;0.40;0.30;;;;;;;17.93;100.00;100457.09;5093078;28;20774;-51
2021/06/25 00:24:47;;;;;;;0.77;0.63;;;;;;;17.97;100.00;100465.88;5095235;28;20419;-52
2021/06/25 00:27:13;;;;;;;0.40;0.20;;;;;;;17.96;100.00;100456.94;5094994;28;20607;-52
2021/06/25 00:29:40;;;;;;;0.40;0.30;;;;;;;17.99;100.00;100461.28;5095217;28;20448;-52
2021/06/25 00:32:07;;;;;;;0.40;0.20;;;;;;;17.96;100.00;100458.75;5095205;28;20471;-52
2021/06/25 00:34:34;;;;;;;0.40;0.20;;;;;;;17.99;100.00;100458.59;5080889;28;20523;-52
2021/06/25 00:37:00;;;;;;;0.40;0.20;;;;;;;17.94;100.00;100457.94;5094830;28;20843;-51
2021/06/25 00:39:27;;;;;;;0.50;0.40;;;;;;;17.93;100.00;100459.78;5094113;28;20485;-51
2021/06/25 00:41:54;;;;;;;0.63;0.63;;;;;;;17.89;100.00;100454.66;5082291;28;20473;-52
2021/06/25 00:44:21;;;;;;;0.53;0.50;;;;;;;17.86;100.00;100455.72;5094390;28;20427;-52
2021/06/25 00:46:49;;;;;;;0.40;0.20;;;;;;;17.89;100.00;100455.53;5074352;28;20482;-51
2021/06/25 00:49:16;;;;;;;2.13;2.10;;;;;;;17.95;100.00;100448.94;5089081;28;20449;-52
2021/06/25 00:51:43;;;;;;;0.40;0.20;;;;;;;17.92;100.00;100449.97;5094828;28;20439;-52
2021/06/25 00:54:11;;;;;;;0.40;0.20;;;;;;;17.90;100.00;100454.56;5094588;28;20444;-52
2021/06/25 00:56:38;;;;;;;0.57;0.57;;;;;;;17.87;100.00;100454.75;5094752;28;20453;-51
2021/06/25 00:59:05;;;;;;;2.30;0.93;;;;;;;17.82;100.00;100451.47;5094695;28;20799;-51
2021/06/25 01:01:32;;;;;;;0.40;0.20;;;;;;;17.89;100.00;100450.16;5081386;28;20456;-52
2021/06/25 01:03:59;;;;;;;0.40;0.30;;;;;;;17.90;100.00;100448.34;5094318;28;20449;-52
2021/06/25 01:06:28;;;;;;;0.40;0.20;;;;;;;17.77;100.00;100446.31;5094315;28;20476;-52
2021/06/25 01:08:56;;;;;;;0.40;0.23;;;;;;;17.80;100.00;100449.78;5094301;28;20489;-52
2021/06/25 01:11:23;;;;;;;0.40;0.20;;;;;;;17.78;100.00;100449.88;5094542;28;20499;-52
2021/06/25 01:13:50;;;;;;;0.40;0.20;;;;;;;17.81;100.00;100454.22;5094263;28;20423;-51
2021/06/25 01:16:16;;;;;;;0.40;0.20;;;;;;;17.85;100.00;100451.28;5075208;28;20483;-53
2021/06/25 01:18:43;;;;;;;0.40;0.20;;;;;;;17.91;100.00;100452.75;5088606;28;20429;-52
2021/06/25 01:21:10;;;;;;;0.53;0.53;;;;;;;17.89;100.00;100457.34;5084361;28;20439;-52
2021/06/25 01:23:42;;;;;;;0.77;0.57;;;;;;;17.81;100.00;100456.91;5094083;28;20427;-51
2021/06/25 01:26:09;;;;;;;0.50;0.30;;;;;;;17.76;100.00;100459.88;5094382;28;20473;-52
2021/06/25 01:28:37;;;;;;;0.70;0.70;;;;;;;17.69;100.00;100459.34;5093574;28;20467;-51
2021/06/25 01:31:05;;;;;;;0.60;0.60;;;;;;;17.65;100.00;100451.47;5077429;28;20996;-52
2021/06/25 01:33:34;;;;;;;0.80;0.80;;;;;;;17.63;100.00;100454.25;5093928;28;20427;-52
2021/06/25 01:36:01;;;;;;;0.40;0.30;;;;;;;17.63;100.00;100450.69;5092666;28;20449;-52
2021/06/25 01:38:28;;;;;;;1.17;1.13;;;;;;;17.50;100.00;100452.31;5093921;28;20492;-52
2021/06/25 01:40:55;;;;;;;0.83;0.73;;;;;;;17.73;100.00;100452.84;5081161;28;20527;-52
2021/06/25 01:43:25;;;;;;;2.70;2.27;;;;;;;17.65;100.00;100452.34;5092386;28;20481;-53
2021/06/25 01:45:52;;;;;;;0.70;0.70;;;;;;;17.74;100.00;100453.72;5078407;28;20428;-52
2021/06/25 01:48:19;;;;;;;1.90;1.70;;;;;;;17.69;100.00;100453.97;5081325;28;20502;-51
2021/06/25 01:50:45;;;;;;;1.33;1.23;;;;;;;17.68;100.00;100452.25;5093704;28;20463;-51
2021/06/25 01:53:16;;;;;;;2.73;2.30;;;;;;;17.77;100.00;100454.41;5093847;28;20482;-51
2021/06/25 01:55:45;;;;;;;0.60;0.60;;;;;;;17.54;100.00;100448.50;5093515;28;20930;-51
2021/06/25 01:58:17;;;;;;;3.27;0.70;;;;;;;17.69;100.00;100448.59;5091531;28;20499;-52
2021/06/25 02:01:08;;;;;;;1.67;0.83;;;;;;;17.50;100.00;100446.94;5083980;28;20439;-52
2021/06/25 02:03:35;;;;;;;2.73;1.90;;;;;;;17.56;100.00;100447.50;5093624;28;20416;-51
2021/06/25 02:06:02;;;;;;;0.40;0.30;;;;;;;17.39;100.00;100436.78;5093271;28;20453;-51
2021/06/25 02:08:28;;;;;;;1.53;1.53;;;;;;;17.53;100.00;100441.41;5093103;28;20485;-52
2021/06/25 02:10:55;;;;;;;0.40;0.30;;;;;;;17.54;100.00;100443.13;5093223;28;20491;-51
2021/06/25 02:13:22;;;;;;;1.90;1.77;;;;;;;17.54;100.00;100443.13;5083590;28;20541;-52
2021/06/25 02:15:48;;;;;;;1.50;1.50;;;;;;;17.55;100.00;100444.91;5066456;28;20457;-50
2021/06/25 02:18:15;;;;;;;1.63;1.53;;;;;;;17.53;100.00;100444.94;5092989;28;20441;-52
2021/06/25 02:20:42;;;;;;;0.50;0.50;;;;;;;17.49;100.00;100446.09;5093006;28;20443;-51
2021/06/25 02:23:08;;;;;;;0.50;0.30;;;;;;;17.50;100.00;100441.56;5092877;28;20487;-51
2021/06/25 02:25:35;;;;;;;0.50;0.30;;;;;;;17.59;100.00;100431.19;5093322;28;20469;-50
2021/06/25 02:28:02;;;;;;;0.40;0.20;;;;;;;17.57;100.00;100438.47;5084393;28;20457;-50
2021/06/25 02:30:29;;;;;;;1.07;1.07;;;;;;;17.51;100.00;100436.13;5065919;28;20469;-50
2021/06/25 02:32:56;;;;;;;1.13;1.03;;;;;;;17.44;100.00;100438.28;5092587;28;20423;-51
2021/06/25 02:35:23;;;;;;;0.40;0.20;;;;;;;17.45;100.00;100439.16;5092719;28;20428;-51
2021/06/25 02:37:54;;;;;;;0.40;0.20;;;;;;;17.39;100.00;100437.66;5092503;28;20465;-51
2021/06/25 02:40:22;;;;;;;1.80;1.70;;;;;;;17.31;100.00;100437.22;5084360;28;20462;-50
2021/06/25 02:42:49;;;;;;;1.63;0.50;;;;;;;17.33;100.00;100435.31;5081219;28;20463;-50
2021/06/25 02:45:16;;;;;;;0.40;0.20;;;;;;;17.35;100.00;100440.59;5092463;28;20486;-51
2021/06/25 02:47:43;;;;;;;0.50;0.47;;;;;;;17.54;100.00;100435.06;5091076;28;20484;-51
2021/06/25 02:50:11;;;;;;;1.80;1.70;;;;;;;17.27;100.00;100432.97;5092435;28;20964;-51
2021/06/25 02:52:40;;;;;;;0.50;0.30;;;;;;;17.30;100.00;100435.47;5092294;28;20509;-51
2021/06/25 02:55:09;;;;;;;0.40;0.20;;;;;;;17.33;100.00;100432.63;5092577;28;20450;-51
2021/06/25 02:57:36;;;;;;;0.50;0.40;;;;;;;17.25;100.00;100432.16;5087324;28;20475;-51
2021/06/25 03:00:12;;;;;;;0.40;0.20;;;;;;;17.37;100.00;100428.81;5073182;28;20441;-51
2021/06/25 03:02:39;;;;;;;3.77;3.13;;;;;;;17.33;100.00;100434.44;5087649;28;20428;-51
2021/06/25 03:05:07;;;;;;;1.33;1.23;;;;;;;17.37;100.00;100431.50;5092121;28;20477;-51
2021/06/25 03:07:34;;;;;;;1.73;1.63;;;;;;;17.40;100.00;100436.69;5092113;28;20463;-50
2021/06/25 03:10:01;;;;;;;0.50;0.20;;;;;;;17.36;100.00;100435.13;5088778;28;20444;-51
2021/06/25 03:12:27;;;;;;;0.80;0.80;;;;;;;17.35;100.00;100433.41;5090106;28;20423;-51
2021/06/25 03:14:54;;;;;;;0.60;0.50;;;;;;;17.35;100.00;100430.72;5077016;28;20471;-51
2021/06/25 03:17:21;;;;;;;0.50;0.40;;;;;;;17.44;100.00;100424.84;5091912;28;20789;-51
2021/06/25 03:19:47;;;;;;;1.37;1.37;;;;;;;17.52;100.00;100431.59;5091952;28;20468;-51
2021/06/25 03:22:14;;;;;;;0.93;0.93;;;;;;;17.46;100.00;100439.06;5090780;28;20964;-51
2021/06/25 03:24:41;;;;;;;4.37;1.37;;;;;;;17.35;100.00;100435.22;5090535;28;20494;-50
2021/06/25 03:27:07;;;;;;;0.53;0.53;;;;;;;17.33;100.00;100431.75;5090616;28;20430;-51
2021/06/25 03:29:35;;;;;;;6.23;2.10;;;;;;;17.28;100.00;100434.69;5091750;28;21111;-51
2021/06/25 03:32:02;;;;;;;0.40;0.20;;;;;;;17.31;100.00;100430.97;5091713;28;20449;-51
2021/06/25 03:34:29;;;;;;;0.60;0.60;;;;;;;17.32;100.00;100441.63;5091027;28;20452;-51
2021/06/25 03:36:55;;;;;;;0.60;0.60;;;;;;;17.33;100.00;100431.75;5091489;28;20897;-51
2021/06/25 03:39:22;;;;;;;3.70;1.23;;;;;;;17.37;100.00;100438.69;5085764;28;20825;-52
2021/06/25 03:41:49;;;;;;;0.40;0.20;;;;;;;17.38;100.00;100443.97;5058844;28;20508;-51
2021/06/25 03:44:15;;;;;;;1.10;0.87;;;;;;;17.37;100.00;100444.06;5084632;28;20427;-52
2021/06/25 03:46:42;;;;;;;0.40;0.30;;;;;;;17.39;100.00;100434.09;5090187;28;20530;-51
2021/06/25 03:49:08;;;;;;;0.67;0.67;;;;;;;17.53;100.00;100436.03;5092756;28;20498;-51
2021/06/25 03:51:35;;;;;;;1.40;1.40;;;;;;;17.45;100.00;100437.31;5091540;28;20473;-51
2021/06/25 03:54:02;;;;;;;2.00;1.40;;;;;;;17.32;100.00;100433.56;5091256;28;20954;-51
2021/06/25 03:56:29;;;;;;;1.67;0.97;;;;;;;17.38;100.00;100435.91;5091416;28;20445;-51
2021/06/25 03:58:56;;;;;;;2.10;2.10;;;;;;;17.35;100.00;100430.72;5091057;28;20802;-51
2021/06/25 04:01:23;;;;;;;0.83;0.83;;;;;;;17.39;100.00;100445.72;5091093;28;20516;-51
2021/06/25 04:03:50;;;;;;;0.40;0.20;;;;;;;17.37;100.00;100438.69;5090206;28;20441;-52
2021/06/25 04:06:17;;;;;;;0.40;0.20;;;;;;;17.37;100.00;100434.19;5091544;28;20452;-51
2021/06/25 04:08:47;;;;;;;3.27;0.77;;;;;;;17.40;100.00;100436.69;5091100;28;20482;-51
2021/06/25 04:11:15;;;;;;;0.40;0.20;;;;;;;17.50;100.00;100452.31;5079327;28;20445;-51
2021/06/25 04:13:41;;;;;;;1.57;1.47;;;;;;;17.43;100.00;100443.75;5071176;28;20420;-51
2021/06/25 04:16:08;;;;;;;4.47;3.07;;;;;;;17.47;100.00;100443.47;5091154;28;20534;-51
2021/06/25 04:18:35;;;;;;;1.40;1.40;;;;;;;17.50;100.00;100442.44;5091246;28;20441;-51
2021/06/25 04:21:02;;;;;;;0.50;0.40;;;;;;;17.48;100.00;100442.53;5091349;28;20531;-52
2021/06/25 04:23:29;;;;;;;0.50;0.20;;;;;;;17.55;100.00;100444.91;5090949;28;20445;-51
2021/06/25 04:25:56;;;;;;;0.40;0.20;;;;;;;17.38;100.00;100441.28;5091658;28;20423;-50
2021/06/25 04:28:23;;;;;;;1.33;1.33;;;;;;;17.41;100.00;100443.84;5090671;28;20455;-51
2021/06/25 04:30:50;;;;;;;0.50;0.20;;;;;;;17.43;100.00;100444.59;5090804;28;20970;-51
2021/06/25 04:33:17;;;;;;;2.80;2.60;;;;;;;17.28;100.00;100455.31;5090948;28;20427;-51
2021/06/25 04:35:46;;;;;;;0.40;0.20;;;;;;;17.37;100.00;100453.00;5091146;28;20444;-51
2021/06/25 04:38:13;;;;;;;1.30;1.30;;;;;;;17.32;100.00;100447.00;5090905;28;20419;-51
2021/06/25 04:40:42;;;;;;;0.60;0.60;;;;;;;17.66;100.00;100453.22;5080305;28;20466;-52
2021/06/25 04:43:11;;;;;;;0.40;0.30;;;;;;;17.69;100.00;100455.78;5088466;28;20929;-51
2021/06/25 04:45:40;;;;;;;1.37;1.37;;;;;;;17.89;100.00;100450.16;5090781;28;20457;-51
2021/06/25 04:48:09;;;;;;;1.43;1.27;;;;;;;18.00;100.00;100457.63;5089647;28;20492;-51
2021/06/25 04:50:36;;;;;;;1.43;1.43;;;;;;;18.06;100.00;100458.13;5090948;28;20477;-51
2021/06/25 04:53:03;;;;;;;2.30;2.20;;;;;;;18.06;100.00;100455.44;5092592;28;20423;-52
2021/06/25 04:55:30;;;;;;;1.77;1.70;;;;;;;18.46;100.00;100457.66;5095200;28;20517;-52
2021/06/25 04:57:57;;;;;;;0.40;0.20;;;;;;;18.39;100.00;100453.59;5094752;28;20449;-52
2021/06/25 05:00:28;;;;;;;1.27;0.97;;;;;;;18.75;100.00;100454.16;5094762;28;20556;-51
2021/06/25 05:02:55;;;;;;;0.40;0.27;;;;;;;18.50;100.00;100457.41;5095024;28;20427;-51
2021/06/25 05:05:21;;;;;;;4.03;1.40;;;;;;;18.61;100.00;100451.38;5094688;28;20424;-51
2021/06/25 05:07:48;;;;;;;0.40;0.23;;;;;;;18.88;100.00;100448.88;5094515;28;20476;-52
2021/06/25 05:10:15;;;;;;;0.80;0.80;;;;;;;18.88;100.00;100440.81;5094358;28;20477;-51
2021/06/25 05:12:41;;;;;;;0.43;0.33;;;;;;;18.87;100.00;100439.94;5094663;28;20481;-52
2021/06/25 05:15:09;;;;;;;0.43;0.30;;;;;;;18.65;100.00;100436.81;5094793;28;20476;-51
2021/06/25 05:17:36;;;;;;;0.63;0.60;;;;;;;18.56;100.00;100443.56;5094689;28;20441;-51
2021/06/25 05:20:04;;;;;;;4.20;0.87;;;;;;;18.51;100.00;100450.19;5094331;28;20466;-51
2021/06/25 05:22:32;;;;;;;2.67;2.60;;;;;;;18.86;100.00;100446.28;5094628;28;20427;-51
2021/06/25 05:24:59;;;;;;;0.47;0.40;;;;;;;18.93;100.00;100454.88;5094280;28;20441;-51
2021/06/25 05:27:26;;;;;;;1.07;0.97;;;;;;;18.82;100.00;100454.66;5093124;28;20954;-52
2021/06/25 05:29:52;;;;;;;0.97;0.80;;;;;;;18.85;100.00;100451.78;5094265;28;20491;-52
2021/06/25 05:32:19;;;;;;;0.40;0.20;;;;;;;18.96;100.00;100449.31;5094581;28;20435;-52
2021/06/25 05:34:46;;;;;;;4.20;2.90;;;;;;;18.84;100.00;100455.44;5094216;28;20420;-52
2021/06/25 05:37:12;;;;;;;0.40;0.37;;;;;;;19.16;100.00;100454.31;5094336;28;20445;-52
2021/06/25 05:39:40;;;;;;;0.67;0.67;;;;;;;19.32;100.00;100454.25;5091546;28;20471;-51
2021/06/25 05:42:07;;;;;;;0.50;0.50;;;;;;;19.21;100.00;100459.47;5083026;28;20453;-51
2021/06/25 05:44:35;;;;;;;0.90;0.90;;;;;;;19.42;100.00;100458.09;5093750;28;20464;-51
2021/06/25 05:47:03;;;;;;;0.40;0.20;;;;;;;19.58;100.00;100457.16;5092279;28;20453;-51
2021/06/25 05:49:30;;;;;;;0.90;0.90;;;;;;;19.69;100.00;100462.75;5093786;28;20520;-51
2021/06/25 05:51:57;;;;;;;11.07;3.13;;;;;;;19.83;100.00;100462.75;5093940;28;20449;-51
2021/06/25 05:54:23;;;;;;;2.70;1.23;;;;;;;19.82;100.00;100461.88;5094214;28;20472;-53
2021/06/25 05:56:50;;;;;;;0.40;0.30;;;;;;;19.63;100.00;100476.66;5094196;28;20420;-52
2021/06/25 05:59:17;;;;;;;2.83;1.50;;;;;;;19.66;100.00;100480.00;5093773;28;20999;-52
2021/06/25 06:01:43;;;;;;;0.50;0.30;;;;;;;19.56;100.00;100470.75;5093689;28;20589;-52
2021/06/25 06:04:10;;;;;;;3.17;3.03;;;;;;;19.56;100.00;100477.97;5093554;28;20428;-51
2021/06/25 06:06:37;;;;;;;2.10;0.67;;;;;;;19.67;98.17;100473.66;5093515;28;20560;-52
2021/06/25 06:09:04;;;;;;;4.30;2.70;;;;;;;19.75;99.49;100471.34;5093373;28;20525;-52
2021/06/25 06:11:30;;;;;;;0.70;0.50;;;;;;;19.49;100.00;100485.56;5093629;28;21039;-51
2021/06/25 06:13:57;;;;;;;0.50;0.37;;;;;;;19.41;98.95;100491.44;5093160;28;20476;-51
2021/06/25 06:16:24;;;;;;;0.50;0.40;;;;;;;19.31;97.24;100481.28;5093394;28;20453;-51
2021/06/25 06:18:51;;;;;;;1.80;1.70;;;;;;;19.08;100.00;100478.19;5093242;28;20415;-52
2021/06/25 06:21:21;;;;;;;0.47;0.30;;;;;;;19.06;100.00;100487.34;5093562;28;20469;-52
2021/06/25 06:32:49;;;;;;;0.53;0.53;;;;;;;19.30;97.41;100482.25;5093078;28;20445;-51
2021/06/25 06:34:54;;;;;;;0.53;0.53;;;;;;;19.70;95.37;100477.97;5095040;28;20461;-52
2021/06/25 06:37:21;;;;;;;3.90;2.30;;;;;;;19.90;94.92;100477.59;5093147;28;20448;-51
2021/06/25 06:39:48;;;;;;;0.50;0.30;;;;;;;20.16;93.77;100478.59;5092723;28;20482;-51
2021/06/25 06:42:14;;;;;;;0.40;0.20;;;;;;;19.74;92.88;100487.63;5093240;28;20449;-51
2021/06/25 06:44:41;;;;;;;3.50;3.33;;;;;;;19.69;93.92;100487.91;5092591;28;20943;-52
2021/06/25 06:47:08;;;;;;;1.57;0.60;;;;;;;19.86;93.85;100486.81;5091318;28;20476;-51
2021/06/25 06:49:34;;;;;;;3.13;1.13;;;;;;;19.98;93.97;100483.34;5092807;28;20921;-51
2021/06/25 06:52:05;;;;;;;0.40;0.30;;;;;;;19.70;93.08;100489.63;5092926;28;20455;-52
2021/06/25 06:54:32;;;;;;;2.10;1.60;;;;;;;19.25;94.44;100504.13;5091394;28;20449;-52
2021/06/25 06:56:59;;;;;;;0.40;0.30;;;;;;;19.36;93.86;100498.06;5093061;28;20452;-51
2021/06/25 06:59:26;;;;;;;0.40;0.30;;;;;;;19.64;92.89;100498.13;5093407;28;20420;-52
2021/06/25 07:01:52;;;;;;;1.10;0.77;;;;;;;19.31;96.23;100511.81;5092716;28;20518;-52
2021/06/25 07:04:32;;;;;;;5.03;3.50;;;;;;;19.28;96.16;100508.44;5093321;28;20461;-52
2021/06/25 07:06:58;;;;;;;0.70;0.70;;;;;;;19.70;94.29;100510.34;5092564;28;20446;-52
2021/06/25 07:09:25;;;;;;;12.87;3.10;;;;;;;19.85;93.96;100512.06;5092945;28;20571;-52
2021/06/25 07:11:52;;;;;;;1.73;1.70;;;;;;;19.75;93.15;100513.63;5093129;28;20469;-52
2021/06/25 07:14:18;;;;;;;0.40;0.20;;;;;;;19.66;92.07;100516.91;5092222;28;20427;-52
2021/06/25 07:16:45;;;;;;;0.50;0.30;;;;;;;19.36;94.70;100512.41;5092109;28;20449;-53
2021/06/25 07:19:12;;;;;;;0.50;0.40;;;;;;;19.64;94.56;100517.00;5066310;28;20895;-52
2021/06/25 07:21:39;;;;;;;0.50;0.30;;;;;;;19.51;96.64;100526.78;5093865;28;20514;-52
2021/06/25 07:24:06;;;;;;;3.73;0.90;;;;;;;19.53;95.17;100530.25;5092772;28;20502;-52
2021/06/25 07:26:33;;;;;;;0.40;0.20;;;;;;;19.60;94.26;100530.75;5092356;28;20937;-52
2021/06/25 07:28:59;;;;;;;3.17;0.97;;;;;;;19.39;95.40;100535.63;5092207;28;20481;-52
2021/06/25 07:31:26;;;;;;;0.40;0.20;;;;;;;19.59;94.37;100537.13;5092025;28;20957;-52
2021/06/25 07:33:52;;;;;;;0.40;0.20;;;;;;;19.91;93.77;100538.69;5092336;28;20449;-52
2021/06/25 07:36:20;;;;;;;0.40;0.20;;;;;;;19.79;93.09;100542.16;5080250;28;20432;-53
2021/06/25 07:38:46;;;;;;;2.40;2.30;;;;;;;19.74;93.49;100534.34;5092324;28;20415;-52
2021/06/25 07:41:13;;;;;;;2.10;1.90;;;;;;;19.71;94.61;100529.13;5078843;28;20447;-53
2021/06/25 07:43:40;;;;;;;0.83;0.80;;;;;;;19.63;95.55;100535.97;5091872;28;20870;-51
2021/06/25 07:46:07;;;;;;;2.03;1.83;;;;;;;19.89;93.60;100535.22;5090195;28;20970;-52
2021/06/25 07:48:33;;;;;;;1.17;1.07;;;;;;;19.62;92.87;100534.25;5091789;28;21081;-52
2021/06/25 07:51:00;;;;;;;0.40;0.30;;;;;;;19.96;93.27;100535.69;5092273;28;20499;-52
2021/06/25 07:53:27;;;;;;;0.40;0.30;;;;;;;19.56;90.88;100535.47;5091971;28;20502;-53
2021/06/25 07:55:53;;;;;;;0.50;0.40;;;;;;;20.04;91.36;100536.06;5091818;28;20449;-52
2021/06/25 07:58:20;;;;;;;2.93;1.17;;;;;;;19.74;91.86;100533.50;5092046;28;20449;-52
2021/06/25 08:00:47;;;;;;;0.40;0.30;;;;;;;19.73;91.25;100532.59;5091656;28;20436;-52
2021/06/25 08:03:14;;;;;;;0.50;0.40;;;;;;;19.47;92.55;100528.81;5091802;28;20415;-52
2021/06/25 08:05:40;;;;;;;0.40;0.30;;;;;;;19.58;93.63;100530.00;5091977;28;20445;-52
2021/06/25 08:08:07;;;;;;;0.40;0.20;;;;;;;19.44;93.91;100518.19;5091996;28;20972;-51
2021/06/25 08:10:34;;;;;;;0.40;0.20;;;;;;;19.53;92.89;100530.25;5091708;28;20870;-52
2021/06/25 08:13:02;;;;;;;0.40;0.30;;;;;;;19.44;93.10;100528.13;5090467;28;20420;-52
2021/06/25 08:15:29;;;;;;;2.23;0.47;;;;;;;19.21;93.76;100532.22;5091470;28;20836;-52
2021/06/25 08:17:56;;;;;;;0.50;0.50;;;;;;;19.59;92.69;100535.28;5091655;28;20420;-53
2021/06/25 08:20:22;;;;;;;0.40;0.20;;;;;;;19.34;93.34;100525.13;5091440;28;20443;-52
2021/06/25 08:22:49;;;;;;;0.50;0.40;;;;;;;19.45;94.04;100536.09;5091678;28;20526;-52
2021/06/25 08:25:16;;;;;;;2.87;1.27;;;;;;;19.59;94.13;100534.41;5092100;28;20456;-52
2021/06/25 08:27:43;;;;;;;0.50;0.50;;;;;;;19.89;91.99;100534.34;5087908;28;20897;-52
2021/06/25 08:30:10;;;;;;;0.40;0.20;;;;;;;20.19;92.56;100531.53;5091318;28;20902;-52
2021/06/25 08:32:38;;;;;;;2.70;1.57;;;;;;;20.47;90.01;100531.50;5095773;28;20434;-52
2021/06/25 08:35:06;;;;;;;0.40;0.30;;;;;;;19.75;91.62;100529.81;5095255;28;20946;-52
2021/06/25 08:37:33;;;;;;;1.43;1.43;;;;;;;19.93;90.01;100525.09;5093163;28;20498;-52
2021/06/25 08:40:00;;;;;;;1.67;1.60;;;;;;;20.53;89.85;100512.16;5100249;28;20433;-52
2021/06/25 08:42:28;;;;;;;0.40;0.20;;;;;;;20.68;89.78;100513.84;5078789;28;20964;-52
2021/06/25 08:44:54;;;;;;;0.50;0.40;;;;;;;20.75;89.16;100521.56;5095916;28;20431;-51
2021/06/25 08:47:25;;;;;;;0.50;0.30;;;;;;;20.78;86.24;100516.81;5093513;28;20837;-52
2021/06/25 08:50:03;;;;;;;2.10;1.90;;;;;;;20.60;89.00;100515.34;5095292;28;20488;-52
2021/06/25 08:52:30;;;;;;;0.60;0.60;;;;;;;20.60;88.13;100518.03;5095024;28;20479;-52
2021/06/25 08:54:56;;;;;;;0.40;0.30;;;;;;;21.12;86.58;100522.63;5070141;28;20439;-52
2021/06/25 08:57:23;;;;;;;2.33;2.30;;;;;;;21.35;86.81;100515.66;5094703;28;20449;-52
2021/06/25 08:59:51;;;;;;;6.90;3.50;;;;;;;21.15;87.24;100508.91;5079684;28;20447;-53
2021/06/25 09:02:18;;;;;;;0.40;0.20;;;;;;;21.34;85.85;100508.50;5054977;28;20912;-53
2021/06/25 09:04:47;;;;;;;1.23;1.07;;;;;;;20.79;85.41;100510.44;5074694;28;20450;-53
2021/06/25 09:07:13;;;;;;;1.93;1.93;;;;;;;20.80;86.12;100514.00;5074442;28;20510;-52
2021/06/25 09:09:44;;;;;;;0.40;0.30;;;;;;;20.64;86.75;100512.31;5074357;28;20517;-52
2021/06/25 09:12:22;;;;;;;0.50;0.50;;;;;;;21.06;87.36;100504.13;5073399;28;20441;-53
2021/06/25 09:15:13;;;;;;;0.50;0.50;;;;;;;21.21;87.56;100505.75;5062341;28;20458;-52
2021/06/25 09:17:58;;;;;;;0.50;0.30;;;;;;;21.24;84.71;100503.72;5061740;28;20424;-52
2021/06/25 09:20:34;;;;;;;1.10;1.10;;;;;;;21.40;84.87;100508.09;5058735;28;20481;-53
2021/06/25 09:23:12;;;;;;;0.70;0.70;;;;;;;21.31;83.77;100512.31;5073378;28;20480;-52
2021/06/25 09:25:59;;;;;;;2.57;2.10;;;;;;;21.23;87.00;100501.97;5064997;28;20576;-52
2021/06/25 09:28:27;;;;;;;0.50;0.30;;;;;;;21.10;85.81;100500.22;5074105;28;20446;-53
2021/06/25 09:30:54;;;;;;;2.50;2.40;;;;;;;21.06;86.20;100498.72;5066454;28;20487;-52
2021/06/25 09:33:22;;;;;;;1.13;0.93;;;;;;;21.17;88.88;100498.84;5070883;28;20502;-52
2021/06/25 09:35:54;;;;;;;2.30;1.13;;;;;;;21.91;85.95;100498.09;5074427;28;20473;-52
2021/06/25 09:38:34;;;;;;;0.40;0.20;;;;;;;21.84;86.63;100494.97;5075547;28;20507;-53
2021/06/25 09:41:14;;;;;;;2.37;2.07;;;;;;;21.78;85.33;100497.25;5067793;28;20478;-54
2021/06/25 09:43:41;;;;;;;2.63;1.13;;;;;;;21.72;83.82;100500.41;5062464;28;20446;-53
2021/06/25 09:46:07;;;;;;;1.53;1.43;;;;;;;22.29;83.00;100497.16;5071935;28;20466;-53
2021/06/25 09:48:54;;;;;;;1.13;1.03;;;;;;;22.23;82.73;100498.50;5074098;28;20465;-53
2021/06/25 09:51:22;;;;;;;0.50;0.30;;;;;;;22.17;83.70;100497.09;5073585;28;20490;-53
2021/06/25 09:54:09;;;;;;;0.60;0.60;;;;;;;21.78;84.57;100495.41;5074149;28;20503;-52
2021/06/25 09:56:45;;;;;;;0.53;0.47;;;;;;;22.39;82.37;100498.22;5073868;28;20446;-53
2021/06/25 10:02:16;;;;;;;0.50;0.50;;;;;;;22.20;83.20;100496.00;5069155;28;20490;-53
2021/06/25 10:04:44;;;;;;;1.10;1.07;;;;;;;22.16;82.00;100492.66;5073879;28;20457;-53
2021/06/25 10:07:16;;;;;;;0.60;0.60;;;;;;;22.00;81.99;100496.56;5073710;28;20454;-51
2021/06/25 10:09:45;;;;;;;1.33;0.60;;;;;;;21.77;84.57;100496.38;5073252;28;20477;-52
2021/06/25 10:12:14;;;;;;;0.63;0.60;;;;;;;22.08;83.93;100489.66;5073356;28;20488;-53
2021/06/25 10:14:44;;;;;;;5.47;0.83;;;;;;;22.19;82.14;100496.97;5073829;28;20511;-52
2021/06/25 10:17:13;;;;;;;0.40;0.30;;;;;;;22.16;80.23;100494.50;5073534;28;20446;-52
2021/06/25 10:19:49;;;;;;;1.60;1.60;;;;;;;21.80;83.27;100485.34;5073536;28;20497;-52
2021/06/25 10:22:20;;;;;;;1.80;0.63;;;;;;;22.49;83.87;100482.16;5059847;28;20908;-52
2021/06/25 10:24:50;;;;;;;0.50;0.43;;;;;;;21.82;82.38;100479.81;5073491;28;20511;-52
2021/06/25 10:27:19;;;;;;;3.20;0.83;;;;;;;22.44;81.91;100480.63;5073479;28;20450;-53
2021/06/25 10:29:47;;;;;;;0.93;0.93;;;;;;;23.00;79.08;100475.47;5073393;28;20870;-52
2021/06/25 10:32:16;;;;;;;0.50;0.30;;;;;;;22.98;79.82;100471.16;5060922;28;20450;-52
2021/06/25 10:34:44;;;;;;;1.43;1.10;;;;;;;23.24;76.94;100474.56;5071081;28;20480;-52
2021/06/25 10:37:19;;;;;;;0.50;0.40;;;;;;;22.56;79.10;100480.69;5071800;28;20450;-52
2021/06/25 10:39:46;;;;;;;0.57;0.57;;;;;;;22.94;80.57;100473.25;5073132;28;20441;-52
2021/06/25 10:42:13;;;;;;;0.43;0.27;;;;;;;22.73;79.50;100477.56;5063069;28;20475;-52
2021/06/25 10:44:44;;;;;;;5.40;0.83;;;;;;;22.74;77.80;100482.88;5069661;28;20457;-52
2021/06/25 10:47:21;;;;;;;0.63;0.63;;;;;;;23.07;77.11;100477.72;5071211;28;20449;-53
2021/06/25 10:50:10;;;;;;;0.63;0.63;;;;;;;23.55;75.13;100483.84;5070544;28;20481;-52
2021/06/25 10:52:38;;;;;;;0.80;0.77;;;;;;;22.86;77.40;100477.53;5058915;28;20433;-52
2021/06/25 10:55:09;;;;;;;1.83;0.77;;;;;;;22.97;77.26;100477.56;5073022;28;20940;-51
2021/06/25 10:57:57;;;;;;;0.50;0.30;;;;;;;23.71;73.99;100478.97;5072657;28;20485;-53
2021/06/25 11:00:24;;;;;;;0.50;0.40;;;;;;;23.92;74.51;100479.94;5069407;28;20493;-53
2021/06/25 11:02:53;;;;;;;0.50;0.40;;;;;;;23.12;77.71;100470.09;5072050;28;20449;-53
2021/06/25 11:05:26;;;;;;;0.60;0.60;;;;;;;23.20;73.91;100471.22;5070656;28;20595;-53
2021/06/25 11:07:54;;;;;;;0.50;0.47;;;;;;;23.70;76.31;100469.06;5059624;28;20495;-53
2021/06/25 11:10:25;;;;;;;0.73;0.70;;;;;;;23.79;72.59;100465.63;5072420;28;20523;-52
2021/06/25 11:13:11;;;;;;;2.00;0.80;;;;;;;23.28;71.66;100460.63;5073066;28;20431;-52
2021/06/25 11:15:43;;;;;;;0.40;0.30;;;;;;;23.37;74.71;100460.91;5073125;28;20449;-53
2021/06/25 11:18:16;;;;;;;2.13;1.70;;;;;;;23.84;72.47;100459.81;5073274;28;20631;-53
2021/06/25 11:21:07;;;;;;;1.37;0.93;;;;;;;23.58;70.54;100457.38;5065843;28;20467;-52
2021/06/25 11:23:37;;;;;;;0.60;0.50;;;;;;;23.34;74.00;100452.03;5068464;28;20503;-52
2021/06/25 11:26:25;;;;;;;0.70;0.70;;;;;;;23.55;76.41;100449.44;5068705;28;20458;-53
2021/06/25 11:28:55;;;;;;;0.40;0.30;;;;;;;23.59;74.48;100452.81;5072219;28;20448;-53
2021/06/25 11:31:30;;;;;;;0.80;0.80;;;;;;;24.32;73.10;100443.25;5060641;28;20517;-54
2021/06/25 11:34:03;;;;;;;1.40;1.40;;;;;;;24.54;74.77;100445.03;5058263;28;20463;-53
2021/06/25 11:36:52;;;;;;;7.83;0.70;;;;;;;24.88;73.18;100441.16;5059396;28;20446;-53
2021/06/25 11:39:22;;;;;;;3.73;1.33;;;;;;;24.08;74.46;100451.53;5072686;28;20454;-53